createdAt,value
2022-11-09T00:04:04.309Z,37.60
2022-11-09T00:09:08.444Z,36.73
2022-11-09T00:14:16.180Z,42.13
2022-11-09T00:19:19.775Z,37.27
2022-11-09T00:24:22.232Z,38.27
2022-11-09T00:29:24.661Z,39.17
2022-11-09T00:34:27.113Z,38.83
2022-11-09T00:39:29.860Z,39.57
2022-11-09T00:44:33.801Z,43.03
2022-11-09T00:49:36.252Z,34.13
2022-11-09T00:54:38.695Z,38.50
2022-11-09T00:59:41.130Z,38.80
2022-11-09T01:04:43.786Z,39.97
2022-11-09T01:09:46.272Z,42.50
2022-11-09T01:14:48.804Z,38.80
2022-11-09T01:19:51.880Z,42.70
2022-11-09T01:24:54.521Z,46.27
2022-11-09T01:29:59.711Z,39.43
2022-11-09T01:35:02.156Z,41.20
2022-11-09T01:40:07.073Z,46.37
2022-11-09T01:45:18.767Z,46.93
2022-11-09T01:50:33.624Z,49.97
2022-11-09T01:55:37.859Z,43.50
2022-11-09T02:00:44.489Z,38.53
2022-11-09T02:05:49.357Z,52.23
2022-11-09T02:11:00.543Z,56.37
2022-11-09T02:16:03.956Z,61.07
2022-11-09T02:21:07.312Z,51.50
2022-11-09T02:26:18.396Z,43.27
2022-11-09T02:31:22.670Z,44.37
2022-11-09T02:36:25.489Z,42.57
2022-11-09T02:41:30.541Z,38.57
2022-11-09T02:46:35.967Z,41.47
2022-11-09T02:51:38.837Z,45.20
2022-11-09T02:56:41.613Z,45.17
2022-11-09T03:01:44.717Z,42.40
2022-11-09T03:06:47.344Z,37.30
2022-11-09T03:11:53.202Z,44.93
2022-11-09T03:16:56.453Z,44.30
2022-11-09T03:21:59.034Z,40.57
2022-11-09T03:27:01.497Z,40.80
2022-11-09T03:32:05.931Z,45.93
2022-11-09T03:37:08.553Z,36.43
2022-11-09T03:42:11.090Z,44.17
2022-11-09T03:47:14.850Z,42.67
2022-11-09T03:52:17.330Z,41.13
2022-11-09T03:57:19.825Z,40.77
2022-11-09T04:02:22.331Z,43.17
2022-11-09T04:07:24.952Z,44.53
2022-11-09T04:12:27.406Z,41.50
2022-11-09T04:17:29.849Z,46.27
2022-11-09T04:22:32.356Z,46.43
2022-11-09T04:27:35.075Z,43.40
2022-11-09T04:32:37.520Z,41.93
2022-11-09T04:37:40.038Z,42.80
2022-11-09T04:42:42.544Z,44.40
2022-11-09T04:47:45.051Z,47.43
2022-11-09T04:52:47.489Z,48.33
2022-11-09T04:57:49.894Z,46.43
2022-11-09T05:02:52.381Z,50.17
2022-11-09T05:07:54.883Z,43.00
2022-11-09T05:12:59.042Z,46.10
2022-11-09T05:18:02.060Z,47.00
2022-11-09T05:23:23.883Z,45.33
2022-11-09T05:28:26.482Z,46.67
2022-11-09T05:33:29.129Z,40.80
2022-11-09T05:38:32.135Z,43.97
2022-11-09T05:43:34.511Z,42.70
2022-11-09T05:48:36.969Z,43.33
2022-11-09T05:53:43.717Z,52.53
2022-11-09T05:58:48.809Z,59.93
2022-11-09T06:03:54.106Z,130.57
2022-11-09T06:08:56.596Z,56.77
2022-11-09T06:13:59.040Z,52.20
2022-11-09T06:19:01.577Z,41.03
2022-11-09T06:24:04.177Z,46.43
2022-11-09T06:29:06.583Z,49.47
2022-11-09T06:34:09.275Z,64.63
2022-11-09T06:39:11.697Z,59.40
2022-11-09T06:44:14.142Z,48.97
2022-11-09T06:49:16.741Z,54.00
2022-11-09T06:54:19.197Z,49.60
2022-11-09T06:59:22.128Z,36.00
2022-11-09T07:04:27.887Z,44.53
2022-11-09T07:09:30.343Z,48.33
2022-11-09T07:14:32.881Z,62.93
2022-11-09T07:19:35.258Z,118.00
2022-11-09T07:24:37.995Z,47.37
2022-11-09T07:29:40.598Z,45.50
2022-11-09T07:34:43.058Z,58.10
2022-11-09T07:39:45.549Z,54.73
2022-11-09T07:44:47.963Z,56.63
2022-11-09T07:49:50.457Z,62.57
2022-11-09T07:54:52.898Z,50.13
2022-11-09T07:59:55.438Z,50.43
2022-11-09T08:04:57.835Z,51.70
2022-11-09T08:10:00.264Z,104.03
2022-11-09T08:15:03.077Z,53.93
2022-11-09T08:20:06.591Z,46.23
2022-11-09T08:25:09.786Z,56.17
2022-11-09T08:30:15.209Z,74.17
2022-11-09T08:35:20.610Z,65.63
2022-11-09T08:40:25.048Z,55.00
2022-11-09T08:45:27.423Z,49.13
2022-11-09T08:50:30.894Z,48.97
2022-11-09T08:55:33.540Z,47.10
2022-11-09T09:00:35.978Z,60.50
2022-11-09T09:05:38.570Z,50.20
2022-11-09T09:10:41.216Z,43.37
2022-11-09T09:15:43.784Z,47.23
2022-11-09T09:20:46.523Z,49.70
2022-11-09T09:25:49.419Z,47.07
2022-11-09T09:30:52.424Z,41.90
2022-11-09T09:35:58.387Z,43.17
2022-11-09T09:41:03.122Z,39.10
2022-11-09T09:46:13.909Z,44.47
2022-11-09T09:51:27.739Z,38.47
2022-11-09T09:56:37.252Z,42.47
2022-11-09T10:01:45.085Z,45.83
2022-11-09T10:07:03.880Z,44.50
2022-11-09T10:12:33.372Z,38.30
2022-11-09T10:17:54.733Z,37.37
2022-11-09T10:23:24.945Z,44.13
2022-11-09T10:28:37.963Z,34.57
2022-11-09T10:33:58.167Z,36.47
2022-11-09T10:39:01.871Z,33.73
2022-11-09T10:44:22.776Z,33.47
2022-11-09T10:49:44.185Z,38.47
2022-11-09T10:55:27.177Z,28.40
2022-11-09T11:01:06.842Z,29.80
2022-11-09T11:06:31.476Z,27.77
2022-11-09T11:12:15.023Z,31.47
2022-11-09T11:17:37.406Z,37.20
2022-11-09T11:23:13.704Z,32.67
2022-11-09T11:28:46.769Z,32.43
2022-11-09T11:34:31.978Z,28.77
2022-11-09T11:40:04.951Z,34.00
2022-11-09T11:45:41.687Z,29.67
2022-11-09T11:51:11.463Z,29.87
2022-11-09T11:56:38.446Z,29.60
2022-11-09T12:02:12.875Z,25.80
2022-11-09T12:07:45.888Z,28.07
2022-11-09T12:13:28.310Z,24.53
2022-11-09T12:19:11.916Z,26.37
2022-11-09T12:24:51.621Z,25.23
2022-11-09T12:30:17.934Z,31.33
2022-11-09T12:35:41.343Z,29.17
2022-11-09T12:41:09.163Z,27.47
2022-11-09T12:46:38.517Z,26.07
2022-11-09T12:51:59.579Z,31.17
2022-11-09T12:57:27.221Z,34.50
2022-11-09T13:02:57.709Z,31.20
2022-11-09T13:08:30.491Z,32.73
2022-11-09T13:13:51.370Z,30.27
2022-11-09T13:19:32.543Z,29.73
2022-11-09T13:24:59.906Z,35.50
2022-11-09T13:30:28.461Z,33.67
2022-11-09T13:35:49.332Z,31.30
2022-11-09T13:41:29.258Z,28.70
2022-11-09T13:46:50.143Z,30.50
2022-11-09T13:52:57.086Z,31.17
2022-11-09T13:58:45.122Z,39.70
2022-11-09T14:04:05.941Z,40.63
2022-11-09T14:09:27.749Z,45.37
2022-11-09T14:15:03.738Z,55.23
2022-11-09T14:20:48.090Z,46.27
2022-11-09T14:26:16.355Z,39.83
2022-11-09T14:31:45.529Z,37.20
2022-11-09T14:37:07.062Z,36.40
2022-11-09T14:42:29.078Z,43.03
2022-11-09T14:47:52.676Z,42.43
2022-11-09T14:53:22.485Z,38.23
2022-11-09T14:58:44.655Z,34.83
2022-11-09T15:04:20.115Z,41.77
2022-11-09T15:09:48.266Z,36.13
2022-11-09T15:15:24.360Z,34.80
2022-11-09T15:20:45.326Z,38.67
2022-11-09T15:26:06.507Z,38.17
2022-11-09T15:31:28.499Z,46.23
2022-11-09T15:36:54.852Z,48.90
2022-11-09T15:42:16.097Z,30.73
2022-11-09T15:47:38.612Z,49.77
2022-11-09T15:52:59.455Z,53.07
2022-11-09T15:58:20.461Z,52.97
2022-11-09T16:03:41.677Z,47.83
2022-11-09T16:09:02.709Z,46.67
2022-11-09T16:14:24.528Z,53.77
2022-11-09T16:19:45.400Z,58.20
2022-11-09T16:25:06.705Z,58.23
2022-11-09T16:30:27.717Z,50.67
2022-11-09T16:35:48.744Z,57.53
2022-11-09T16:41:10.942Z,69.27
2022-11-09T16:46:31.987Z,67.70
2022-11-09T16:51:52.951Z,59.63
2022-11-09T16:57:13.889Z,71.57
2022-11-09T17:02:35.213Z,61.33
2022-11-09T17:07:56.230Z,65.13
2022-11-09T17:13:17.090Z,69.33
2022-11-09T17:18:38.930Z,67.37
2022-11-09T17:24:00.573Z,67.40
2022-11-09T17:29:22.969Z,74.63
2022-11-09T17:34:43.816Z,81.83
2022-11-09T17:40:05.456Z,79.97
2022-11-09T17:45:26.729Z,69.83
2022-11-09T17:50:47.727Z,71.23
2022-11-09T17:56:10.099Z,67.73
2022-11-09T18:01:32.396Z,65.70
2022-11-09T18:06:56.398Z,70.23
2022-11-09T18:12:18.102Z,61.10
2022-11-09T18:17:39.024Z,75.37
2022-11-09T18:23:00.676Z,84.50
2022-11-09T18:28:22.370Z,79.30
2022-11-09T18:33:44.196Z,158.90
2022-11-09T18:39:05.623Z,88.50
2022-11-09T18:44:26.805Z,121.30
2022-11-09T18:49:47.949Z,195.90
2022-11-09T18:55:09.417Z,222.90
2022-11-09T19:00:30.744Z,182.07
2022-11-09T19:05:52.036Z,151.97
2022-11-09T19:11:14.126Z,101.03
2022-11-09T19:16:36.089Z,85.30
2022-11-09T19:21:57.464Z,87.53
2022-11-09T19:27:18.806Z,92.17
2022-11-09T19:32:39.695Z,81.20
2022-11-09T19:38:06.021Z,84.20
2022-11-09T19:43:27.179Z,73.17
2022-11-09T19:48:48.669Z,74.80
2022-11-09T19:54:21.796Z,78.13
2022-11-09T19:59:42.873Z,72.23
2022-11-09T20:05:04.247Z,80.87
2022-11-09T20:10:35.372Z,85.43
2022-11-09T20:16:06.135Z,92.03
2022-11-09T20:21:28.072Z,76.20
2022-11-09T20:26:49.929Z,72.77
2022-11-09T20:32:16.708Z,65.20
2022-11-09T20:37:43.087Z,65.73
2022-11-09T20:43:04.601Z,76.10
2022-11-09T20:48:52.115Z,73.33
2022-11-09T20:54:11.444Z,77.23
2022-11-09T20:59:35.632Z,68.63
2022-11-09T21:04:59.260Z,77.10
2022-11-09T21:10:21.077Z,69.17
2022-11-09T21:15:42.892Z,78.33
2022-11-09T21:21:18.066Z,76.70
2022-11-09T21:27:05.605Z,77.53
2022-11-09T21:32:35.141Z,74.73
2022-11-09T21:38:03.022Z,69.47
2022-11-09T21:43:24.598Z,71.53
2022-11-09T21:48:49.109Z,80.87
2022-11-09T21:54:11.344Z,71.57
2022-11-09T21:59:32.817Z,80.17
2022-11-09T22:05:02.957Z,71.93
2022-11-09T22:10:24.625Z,83.17
2022-11-09T22:16:07.336Z,83.53
2022-11-09T22:21:37.532Z,84.60
2022-11-09T22:27:08.096Z,77.70
2022-11-09T22:32:29.672Z,67.43
2022-11-09T22:37:51.106Z,52.67
2022-11-09T22:43:12.154Z,59.40
2022-11-09T22:48:34.466Z,58.03
2022-11-09T22:53:55.186Z,57.33
2022-11-09T22:59:17.909Z,54.17
2022-11-09T23:04:39.020Z,60.20
2022-11-09T23:09:59.908Z,62.47
2022-11-09T23:15:21.167Z,57.50
2022-11-09T23:20:42.900Z,57.67
2022-11-09T23:26:05.236Z,61.97
2022-11-09T23:31:27.894Z,58.70
2022-11-09T23:36:48.841Z,46.77
2022-11-09T23:42:10.177Z,46.07
2022-11-09T23:47:31.005Z,48.77
2022-11-09T23:52:52.652Z,43.20
2022-11-09T23:58:13.737Z,44.77
